sensor_id;sensor_type;location;lat;lon;timestamp;temperature;humidity
44427;DHT22;30133;47.866;-4.222;2024-02-21T00:01:07;16.30;70.80
44427;DHT22;30133;47.866;-4.222;2024-02-21T00:03:32;16.30;70.70
44427;DHT22;30133;47.866;-4.222;2024-02-21T00:05:58;16.30;70.80
44427;DHT22;30133;47.866;-4.222;2024-02-21T00:08:24;16.30;70.70
44427;DHT22;30133;47.866;-4.222;2024-02-21T00:10:50;16.40;70.70
44427;DHT22;30133;47.866;-4.222;2024-02-21T00:13:16;16.30;70.70
44427;DHT22;30133;47.866;-4.222;2024-02-21T00:15:42;16.30;70.70
44427;DHT22;30133;47.866;-4.222;2024-02-21T00:18:07;16.40;70.70
44427;DHT22;30133;47.866;-4.222;2024-02-21T00:20:33;16.30;70.70
44427;DHT22;30133;47.866;-4.222;2024-02-21T00:23:05;16.30;70.70
44427;DHT22;30133;47.866;-4.222;2024-02-21T00:25:31;16.40;70.60
44427;DHT22;30133;47.866;-4.222;2024-02-21T00:27:57;16.40;70.70
44427;DHT22;30133;47.866;-4.222;2024-02-21T00:30:22;16.30;70.60
44427;DHT22;30133;47.866;-4.222;2024-02-21T00:32:48;16.30;70.70
44427;DHT22;30133;47.866;-4.222;2024-02-21T00:35:14;16.30;70.70
44427;DHT22;30133;47.866;-4.222;2024-02-21T00:37:40;16.30;70.70
44427;DHT22;30133;47.866;-4.222;2024-02-21T00:40:06;16.30;70.70
44427;DHT22;30133;47.866;-4.222;2024-02-21T00:42:32;16.40;70.70
44427;DHT22;30133;47.866;-4.222;2024-02-21T00:44:58;16.30;70.60
44427;DHT22;30133;47.866;-4.222;2024-02-21T00:47:24;16.40;70.70
44427;DHT22;30133;47.866;-4.222;2024-02-21T00:49:50;16.30;70.70
44427;DHT22;30133;47.866;-4.222;2024-02-21T00:52:15;16.30;70.70
44427;DHT22;30133;47.866;-4.222;2024-02-21T00:54:41;16.40;70.70
44427;DHT22;30133;47.866;-4.222;2024-02-21T00:57:07;16.40;70.80
44427;DHT22;30133;47.866;-4.222;2024-02-21T00:59:33;16.40;70.80
44427;DHT22;30133;47.866;-4.222;2024-02-21T01:01:59;16.30;70.80
44427;DHT22;30133;47.866;-4.222;2024-02-21T01:04:25;16.30;70.70
44427;DHT22;30133;47.866;-4.222;2024-02-21T01:06:50;16.30;70.80
44427;DHT22;30133;47.866;-4.222;2024-02-21T01:09:16;16.30;70.80
44427;DHT22;30133;47.866;-4.222;2024-02-21T01:11:42;16.30;70.80
44427;DHT22;30133;47.866;-4.222;2024-02-21T01:14:08;16.30;70.80
44427;DHT22;30133;47.866;-4.222;2024-02-21T01:16:33;16.30;70.80
44427;DHT22;30133;47.866;-4.222;2024-02-21T01:18:59;16.30;70.80
44427;DHT22;30133;47.866;-4.222;2024-02-21T01:21:25;16.30;70.80
44427;DHT22;30133;47.866;-4.222;2024-02-21T01:23:57;16.40;70.80
44427;DHT22;30133;47.866;-4.222;2024-02-21T01:26:23;16.30;70.80
44427;DHT22;30133;47.866;-4.222;2024-02-21T01:28:49;16.40;70.70
44427;DHT22;30133;47.866;-4.222;2024-02-21T01:31:15;16.30;70.70
44427;DHT22;30133;47.866;-4.222;2024-02-21T01:33:41;16.30;70.70
44427;DHT22;30133;47.866;-4.222;2024-02-21T01:36:08;16.30;70.80
44427;DHT22;30133;47.866;-4.222;2024-02-21T01:38:34;16.40;70.80
44427;DHT22;30133;47.866;-4.222;2024-02-21T01:41:00;16.40;70.80
44427;DHT22;30133;47.866;-4.222;2024-02-21T01:43:26;16.30;70.80
44427;DHT22;30133;47.866;-4.222;2024-02-21T01:45:54;16.40;70.70
44427;DHT22;30133;47.866;-4.222;2024-02-21T01:48:22;16.30;70.80
44427;DHT22;30133;47.866;-4.222;2024-02-21T01:50:49;16.30;70.90
44427;DHT22;30133;47.866;-4.222;2024-02-21T01:53:22;16.30;70.90
44427;DHT22;30133;47.866;-4.222;2024-02-21T01:55:49;16.30;70.90
44427;DHT22;30133;47.866;-4.222;2024-02-21T01:58:15;16.30;70.90
44427;DHT22;30133;47.866;-4.222;2024-02-21T02:00:46;16.40;71.00
44427;DHT22;30133;47.866;-4.222;2024-02-21T02:03:13;16.30;71.00
44427;DHT22;30133;47.866;-4.222;2024-02-21T02:05:49;16.30;71.00
44427;DHT22;30133;47.866;-4.222;2024-02-21T02:08:16;16.30;71.00
44427;DHT22;30133;47.866;-4.222;2024-02-21T02:10:43;16.30;71.00
44427;DHT22;30133;47.866;-4.222;2024-02-21T02:13:09;16.30;71.00
44427;DHT22;30133;47.866;-4.222;2024-02-21T02:15:46;16.30;71.00
44427;DHT22;30133;47.866;-4.222;2024-02-21T02:18:13;16.30;71.00
44427;DHT22;30133;47.866;-4.222;2024-02-21T02:20:39;16.30;71.00
44427;DHT22;30133;47.866;-4.222;2024-02-21T02:25:50;16.30;71.00
44427;DHT22;30133;47.866;-4.222;2024-02-21T02:28:19;16.30;71.10
44427;DHT22;30133;47.866;-4.222;2024-02-21T02:30:46;16.30;71.10
44427;DHT22;30133;47.866;-4.222;2024-02-21T02:33:12;16.30;71.10
44427;DHT22;30133;47.866;-4.222;2024-02-21T02:35:39;16.30;71.10
44427;DHT22;30133;47.866;-4.222;2024-02-21T02:38:05;16.30;71.10
44427;DHT22;30133;47.866;-4.222;2024-02-21T02:40:35;16.30;71.10
44427;DHT22;30133;47.866;-4.222;2024-02-21T02:43:01;16.30;71.10
44427;DHT22;30133;47.866;-4.222;2024-02-21T02:45:27;16.30;71.10
44427;DHT22;30133;47.866;-4.222;2024-02-21T02:47:53;16.30;71.20
44427;DHT22;30133;47.866;-4.222;2024-02-21T02:50:20;16.30;71.20
44427;DHT22;30133;47.866;-4.222;2024-02-21T02:52:46;16.30;71.10
44427;DHT22;30133;47.866;-4.222;2024-02-21T02:55:12;16.30;71.10
44427;DHT22;30133;47.866;-4.222;2024-02-21T02:57:38;16.30;71.10
44427;DHT22;30133;47.866;-4.222;2024-02-21T03:00:04;16.30;71.00
44427;DHT22;30133;47.866;-4.222;2024-02-21T03:02:32;16.30;71.10
44427;DHT22;30133;47.866;-4.222;2024-02-21T03:04:58;16.30;71.10
44427;DHT22;30133;47.866;-4.222;2024-02-21T03:07:25;16.40;71.20
44427;DHT22;30133;47.866;-4.222;2024-02-21T03:09:51;16.30;71.20
44427;DHT22;30133;47.866;-4.222;2024-02-21T03:12:17;16.30;71.20
44427;DHT22;30133;47.866;-4.222;2024-02-21T03:14:53;16.30;71.20
44427;DHT22;30133;47.866;-4.222;2024-02-21T03:17:19;16.30;71.20
44427;DHT22;30133;47.866;-4.222;2024-02-21T03:19:45;16.30;71.20
44427;DHT22;30133;47.866;-4.222;2024-02-21T03:22:10;16.40;71.20
44427;DHT22;30133;47.866;-4.222;2024-02-21T03:24:36;16.30;71.20
44427;DHT22;30133;47.866;-4.222;2024-02-21T03:27:08;16.30;71.20
44427;DHT22;30133;47.866;-4.222;2024-02-21T03:29:34;16.30;71.20
44427;DHT22;30133;47.866;-4.222;2024-02-21T03:32:00;16.30;71.20
44427;DHT22;30133;47.866;-4.222;2024-02-21T03:34:25;16.30;71.20
44427;DHT22;30133;47.866;-4.222;2024-02-21T03:36:51;16.30;71.30
44427;DHT22;30133;47.866;-4.222;2024-02-21T03:39:17;16.30;71.30
44427;DHT22;30133;47.866;-4.222;2024-02-21T03:41:43;16.30;71.20
44427;DHT22;30133;47.866;-4.222;2024-02-21T03:44:09;16.30;71.30
44427;DHT22;30133;47.866;-4.222;2024-02-21T03:46:35;16.40;71.30
44427;DHT22;30133;47.866;-4.222;2024-02-21T03:49:01;16.30;71.20
44427;DHT22;30133;47.866;-4.222;2024-02-21T03:51:26;16.40;71.20
44427;DHT22;30133;47.866;-4.222;2024-02-21T03:53:52;16.30;71.30
44427;DHT22;30133;47.866;-4.222;2024-02-21T03:56:18;16.40;71.30
44427;DHT22;30133;47.866;-4.222;2024-02-21T03:58:44;16.30;71.20
44427;DHT22;30133;47.866;-4.222;2024-02-21T04:01:10;16.40;71.20
44427;DHT22;30133;47.866;-4.222;2024-02-21T04:03:36;16.40;71.20
44427;DHT22;30133;47.866;-4.222;2024-02-21T04:06:01;16.30;71.20
44427;DHT22;30133;47.866;-4.222;2024-02-21T04:08:27;16.30;71.20
44427;DHT22;30133;47.866;-4.222;2024-02-21T04:10:53;16.40;71.30
44427;DHT22;30133;47.866;-4.222;2024-02-21T04:13:19;16.30;71.30
44427;DHT22;30133;47.866;-4.222;2024-02-21T04:15:45;16.30;71.30
44427;DHT22;30133;47.866;-4.222;2024-02-21T04:18:10;16.40;71.20
44427;DHT22;30133;47.866;-4.222;2024-02-21T04:20:36;16.40;71.20
44427;DHT22;30133;47.866;-4.222;2024-02-21T04:23:02;16.40;71.20
44427;DHT22;30133;47.866;-4.222;2024-02-21T04:25:28;16.40;71.20
44427;DHT22;30133;47.866;-4.222;2024-02-21T04:28:00;16.30;71.20
44427;DHT22;30133;47.866;-4.222;2024-02-21T04:30:26;16.30;71.20
44427;DHT22;30133;47.866;-4.222;2024-02-21T04:32:52;16.40;71.30
44427;DHT22;30133;47.866;-4.222;2024-02-21T04:35:18;16.30;71.30
44427;DHT22;30133;47.866;-4.222;2024-02-21T04:37:50;16.30;71.30
44427;DHT22;30133;47.866;-4.222;2024-02-21T04:40:16;16.30;71.30
44427;DHT22;30133;47.866;-4.222;2024-02-21T04:42:42;16.40;71.30
44427;DHT22;30133;47.866;-4.222;2024-02-21T04:45:09;16.40;71.30
44427;DHT22;30133;47.866;-4.222;2024-02-21T04:47:35;16.40;71.30
44427;DHT22;30133;47.866;-4.222;2024-02-21T04:50:00;16.30;71.30
44427;DHT22;30133;47.866;-4.222;2024-02-21T04:52:26;16.30;71.30
44427;DHT22;30133;47.866;-4.222;2024-02-21T04:54:52;16.30;71.30
44427;DHT22;30133;47.866;-4.222;2024-02-21T04:57:18;16.30;71.30
44427;DHT22;30133;47.866;-4.222;2024-02-21T04:59:44;16.30;71.30
44427;DHT22;30133;47.866;-4.222;2024-02-21T05:02:11;16.30;71.30
44427;DHT22;30133;47.866;-4.222;2024-02-21T05:04:36;16.30;71.40
44427;DHT22;30133;47.866;-4.222;2024-02-21T05:07:04;16.30;71.40
44427;DHT22;30133;47.866;-4.222;2024-02-21T05:09:30;16.30;71.40
44427;DHT22;30133;47.866;-4.222;2024-02-21T05:11:57;16.30;71.40
44427;DHT22;30133;47.866;-4.222;2024-02-21T05:14:27;16.30;71.40
44427;DHT22;30133;47.866;-4.222;2024-02-21T05:16:53;16.30;71.30
44427;DHT22;30133;47.866;-4.222;2024-02-21T05:19:19;16.30;71.40
44427;DHT22;30133;47.866;-4.222;2024-02-21T05:21:45;16.30;71.40
44427;DHT22;30133;47.866;-4.222;2024-02-21T05:24:11;16.30;71.40
44427;DHT22;30133;47.866;-4.222;2024-02-21T05:26:43;16.30;71.50
44427;DHT22;30133;47.866;-4.222;2024-02-21T05:29:15;16.30;71.50
44427;DHT22;30133;47.866;-4.222;2024-02-21T05:34:16;16.30;71.50
44427;DHT22;30133;47.866;-4.222;2024-02-21T05:36:42;16.30;71.50
44427;DHT22;30133;47.866;-4.222;2024-02-21T05:39:08;16.30;71.60
44427;DHT22;30133;47.866;-4.222;2024-02-21T05:41:34;16.30;71.60
44427;DHT22;30133;47.866;-4.222;2024-02-21T05:44:00;16.30;71.60
44427;DHT22;30133;47.866;-4.222;2024-02-21T05:46:25;16.20;71.60
44427;DHT22;30133;47.866;-4.222;2024-02-21T05:48:51;16.30;71.60
44427;DHT22;30133;47.866;-4.222;2024-02-21T05:51:17;16.30;71.60
44427;DHT22;30133;47.866;-4.222;2024-02-21T05:53:43;16.30;71.60
44427;DHT22;30133;47.866;-4.222;2024-02-21T05:56:12;16.30;71.60
44427;DHT22;30133;47.866;-4.222;2024-02-21T05:58:38;16.30;71.60
44427;DHT22;30133;47.866;-4.222;2024-02-21T06:01:04;16.30;71.60
44427;DHT22;30133;47.866;-4.222;2024-02-21T06:03:33;16.30;71.50
44427;DHT22;30133;47.866;-4.222;2024-02-21T06:06:02;16.30;71.50
44427;DHT22;30133;47.866;-4.222;2024-02-21T06:08:28;16.30;71.50
44427;DHT22;30133;47.866;-4.222;2024-02-21T06:10:54;16.30;71.60
44427;DHT22;30133;47.866;-4.222;2024-02-21T06:13:26;16.30;71.50
44427;DHT22;30133;47.866;-4.222;2024-02-21T06:15:52;16.30;71.50
44427;DHT22;30133;47.866;-4.222;2024-02-21T06:18:18;16.30;71.50
44427;DHT22;30133;47.866;-4.222;2024-02-21T06:20:45;16.30;71.50
44427;DHT22;30133;47.866;-4.222;2024-02-21T06:23:12;16.30;71.50
44427;DHT22;30133;47.866;-4.222;2024-02-21T06:25:38;16.30;71.50
44427;DHT22;30133;47.866;-4.222;2024-02-21T06:28:05;16.30;71.60
44427;DHT22;30133;47.866;-4.222;2024-02-21T06:30:37;16.30;71.50
44427;DHT22;30133;47.866;-4.222;2024-02-21T06:33:05;16.30;71.50
44427;DHT22;30133;47.866;-4.222;2024-02-21T06:35:30;16.30;71.50
44427;DHT22;30133;47.866;-4.222;2024-02-21T06:37:56;16.30;71.50
44427;DHT22;30133;47.866;-4.222;2024-02-21T06:40:23;16.20;71.60
44427;DHT22;30133;47.866;-4.222;2024-02-21T06:42:52;16.20;71.60
44427;DHT22;30133;47.866;-4.222;2024-02-21T06:45:17;16.30;71.50
44427;DHT22;30133;47.866;-4.222;2024-02-21T06:47:43;16.20;71.60
44427;DHT22;30133;47.866;-4.222;2024-02-21T06:50:09;16.30;71.60
44427;DHT22;30133;47.866;-4.222;2024-02-21T06:52:36;16.30;71.50
44427;DHT22;30133;47.866;-4.222;2024-02-21T06:55:02;16.30;71.50
44427;DHT22;30133;47.866;-4.222;2024-02-21T06:57:29;16.30;71.50
44427;DHT22;30133;47.866;-4.222;2024-02-21T06:59:55;16.30;71.50
44427;DHT22;30133;47.866;-4.222;2024-02-21T07:02:21;16.30;71.50
44427;DHT22;30133;47.866;-4.222;2024-02-21T07:04:46;16.30;71.50
44427;DHT22;30133;47.866;-4.222;2024-02-21T07:07:12;16.30;71.60
44427;DHT22;30133;47.866;-4.222;2024-02-21T07:09:39;16.30;71.60
44427;DHT22;30133;47.866;-4.222;2024-02-21T07:12:05;16.30;71.60
44427;DHT22;30133;47.866;-4.222;2024-02-21T07:14:32;16.20;71.60
44427;DHT22;30133;47.866;-4.222;2024-02-21T07:16:58;16.30;71.60
44427;DHT22;30133;47.866;-4.222;2024-02-21T07:19:24;16.20;71.60
44427;DHT22;30133;47.866;-4.222;2024-02-21T07:21:50;16.20;71.60
44427;DHT22;30133;47.866;-4.222;2024-02-21T07:24:22;16.30;71.60
44427;DHT22;30133;47.866;-4.222;2024-02-21T07:26:48;16.30;71.60
44427;DHT22;30133;47.866;-4.222;2024-02-21T07:29:13;16.20;71.50
44427;DHT22;30133;47.866;-4.222;2024-02-21T07:31:45;16.30;71.60
44427;DHT22;30133;47.866;-4.222;2024-02-21T07:34:14;16.20;71.60
44427;DHT22;30133;47.866;-4.222;2024-02-21T07:36:40;16.20;71.50
44427;DHT22;30133;47.866;-4.222;2024-02-21T07:39:08;16.30;71.60
44427;DHT22;30133;47.866;-4.222;2024-02-21T07:41:34;16.20;71.60
44427;DHT22;30133;47.866;-4.222;2024-02-21T07:44:00;16.20;71.60
44427;DHT22;30133;47.866;-4.222;2024-02-21T07:46:26;16.20;71.60
44427;DHT22;30133;47.866;-4.222;2024-02-21T07:48:51;16.30;71.60
44427;DHT22;30133;47.866;-4.222;2024-02-21T07:51:17;16.20;71.60
44427;DHT22;30133;47.866;-4.222;2024-02-21T07:53:44;16.20;71.50
44427;DHT22;30133;47.866;-4.222;2024-02-21T07:56:14;16.30;71.60
44427;DHT22;30133;47.866;-4.222;2024-02-21T07:58:43;16.30;71.60
44427;DHT22;30133;47.866;-4.222;2024-02-21T08:01:10;16.30;71.60
44427;DHT22;30133;47.866;-4.222;2024-02-21T08:03:36;16.20;71.50
44427;DHT22;30133;47.866;-4.222;2024-02-21T08:06:02;16.30;71.60
44427;DHT22;30133;47.866;-4.222;2024-02-21T08:08:28;16.20;71.50
44427;DHT22;30133;47.866;-4.222;2024-02-21T08:10:54;16.30;71.50
44427;DHT22;30133;47.866;-4.222;2024-02-21T08:13:20;16.30;71.60
44427;DHT22;30133;47.866;-4.222;2024-02-21T08:15:46;16.20;71.60
44427;DHT22;30133;47.866;-4.222;2024-02-21T08:18:12;16.30;71.60
44427;DHT22;30133;47.866;-4.222;2024-02-21T08:20:38;16.20;71.60
44427;DHT22;30133;47.866;-4.222;2024-02-21T08:23:04;16.20;71.70
44427;DHT22;30133;47.866;-4.222;2024-02-21T08:25:29;16.20;71.70
44427;DHT22;30133;47.866;-4.222;2024-02-21T08:27:58;16.20;71.70
44427;DHT22;30133;47.866;-4.222;2024-02-21T08:30:23;16.20;71.70
44427;DHT22;30133;47.866;-4.222;2024-02-21T08:32:55;16.20;71.60
44427;DHT22;30133;47.866;-4.222;2024-02-21T08:35:21;16.30;71.60
44427;DHT22;30133;47.866;-4.222;2024-02-21T08:37:50;16.20;71.60
44427;DHT22;30133;47.866;-4.222;2024-02-21T08:40:16;16.20;71.60
44427;DHT22;30133;47.866;-4.222;2024-02-21T08:42:47;16.20;71.60
44427;DHT22;30133;47.866;-4.222;2024-02-21T08:45:13;16.20;71.60
44427;DHT22;30133;47.866;-4.222;2024-02-21T08:47:42;16.30;71.50
44427;DHT22;30133;47.866;-4.222;2024-02-21T08:50:08;16.30;71.60
44427;DHT22;30133;47.866;-4.222;2024-02-21T08:52:37;16.30;71.50
44427;DHT22;30133;47.866;-4.222;2024-02-21T08:55:03;16.20;71.50
44427;DHT22;30133;47.866;-4.222;2024-02-21T08:57:30;16.30;71.60
44427;DHT22;30133;47.866;-4.222;2024-02-21T09:00:05;16.30;71.50
44427;DHT22;30133;47.866;-4.222;2024-02-21T09:02:37;16.20;71.50
44427;DHT22;30133;47.866;-4.222;2024-02-21T09:05:04;16.30;71.50
44427;DHT22;30133;47.866;-4.222;2024-02-21T09:07:30;16.30;71.50
44427;DHT22;30133;47.866;-4.222;2024-02-21T09:09:56;16.30;71.40
44427;DHT22;30133;47.866;-4.222;2024-02-21T09:12:22;16.30;71.40
44427;DHT22;30133;47.866;-4.222;2024-02-21T09:14:48;16.30;71.40
44427;DHT22;30133;47.866;-4.222;2024-02-21T09:17:16;16.30;71.40
44427;DHT22;30133;47.866;-4.222;2024-02-21T09:19:47;16.30;71.40
44427;DHT22;30133;47.866;-4.222;2024-02-21T09:22:13;16.30;71.50
44427;DHT22;30133;47.866;-4.222;2024-02-21T09:24:39;16.20;71.50
44427;DHT22;30133;47.866;-4.222;2024-02-21T09:27:05;16.20;71.50
44427;DHT22;30133;47.866;-4.222;2024-02-21T09:29:31;16.30;71.40
44427;DHT22;30133;47.866;-4.222;2024-02-21T09:31:59;16.30;71.40
44427;DHT22;30133;47.866;-4.222;2024-02-21T09:34:31;16.30;71.40
44427;DHT22;30133;47.866;-4.222;2024-02-21T09:36:57;16.30;71.40
44427;DHT22;30133;47.866;-4.222;2024-02-21T09:39:23;16.30;71.40
44427;DHT22;30133;47.866;-4.222;2024-02-21T09:42:03;16.30;71.50
44427;DHT22;30133;47.866;-4.222;2024-02-21T09:44:36;16.30;71.50
44427;DHT22;30133;47.866;-4.222;2024-02-21T09:47:06;16.30;71.50
44427;DHT22;30133;47.866;-4.222;2024-02-21T09:49:34;16.30;71.40
44427;DHT22;30133;47.866;-4.222;2024-02-21T09:52:05;16.30;71.50
44427;DHT22;30133;47.866;-4.222;2024-02-21T09:54:34;16.30;71.50
44427;DHT22;30133;47.866;-4.222;2024-02-21T09:57:04;16.30;71.50
44427;DHT22;30133;47.866;-4.222;2024-02-21T09:59:32;16.30;71.60
44427;DHT22;30133;47.866;-4.222;2024-02-21T10:01:58;16.30;71.60
44427;DHT22;30133;47.866;-4.222;2024-02-21T10:04:28;16.30;71.50
44427;DHT22;30133;47.866;-4.222;2024-02-21T10:06:54;16.30;71.50
44427;DHT22;30133;47.866;-4.222;2024-02-21T10:09:27;16.30;71.50
44427;DHT22;30133;47.866;-4.222;2024-02-21T10:11:54;16.20;71.60
44427;DHT22;30133;47.866;-4.222;2024-02-21T10:14:21;16.20;71.60
44427;DHT22;30133;47.866;-4.222;2024-02-21T10:16:57;16.30;71.70
44427;DHT22;30133;47.866;-4.222;2024-02-21T10:19:26;16.30;71.70
44427;DHT22;30133;47.866;-4.222;2024-02-21T10:22:02;16.30;71.70
44427;DHT22;30133;47.866;-4.222;2024-02-21T10:24:29;16.30;71.70
44427;DHT22;30133;47.866;-4.222;2024-02-21T10:27:03;16.20;71.70
44427;DHT22;30133;47.866;-4.222;2024-02-21T10:29:32;16.20;71.70
44427;DHT22;30133;47.866;-4.222;2024-02-21T10:32:09;16.30;71.80
44427;DHT22;30133;47.866;-4.222;2024-02-21T10:34:42;16.30;71.80
44427;DHT22;30133;47.866;-4.222;2024-02-21T10:37:09;16.20;71.80
44427;DHT22;30133;47.866;-4.222;2024-02-21T10:39:38;16.20;71.80
44427;DHT22;30133;47.866;-4.222;2024-02-21T10:42:05;16.30;71.80
44427;DHT22;30133;47.866;-4.222;2024-02-21T10:44:34;16.20;71.80
44427;DHT22;30133;47.866;-4.222;2024-02-21T10:47:09;16.20;71.80
44427;DHT22;30133;47.866;-4.222;2024-02-21T10:49:39;16.30;71.80
44427;DHT22;30133;47.866;-4.222;2024-02-21T10:52:46;16.20;71.80
44427;DHT22;30133;47.866;-4.222;2024-02-21T10:55:20;16.20;71.80
44427;DHT22;30133;47.866;-4.222;2024-02-21T10:57:50;16.30;71.80
44427;DHT22;30133;47.866;-4.222;2024-02-21T11:00:18;16.20;71.80
44427;DHT22;30133;47.866;-4.222;2024-02-21T11:02:46;16.30;71.80
44427;DHT22;30133;47.866;-4.222;2024-02-21T11:05:12;16.20;71.80
44427;DHT22;30133;47.866;-4.222;2024-02-21T11:07:39;16.20;71.80
44427;DHT22;30133;47.866;-4.222;2024-02-21T11:10:19;16.30;71.80
44427;DHT22;30133;47.866;-4.222;2024-02-21T11:12:48;16.20;71.80
44427;DHT22;30133;47.866;-4.222;2024-02-21T11:15:15;16.30;71.80
44427;DHT22;30133;47.866;-4.222;2024-02-21T11:17:40;16.30;71.80
44427;DHT22;30133;47.866;-4.222;2024-02-21T11:20:13;16.30;71.80
44427;DHT22;30133;47.866;-4.222;2024-02-21T11:22:42;16.30;71.80
44427;DHT22;30133;47.866;-4.222;2024-02-21T11:25:09;16.20;71.90
44427;DHT22;30133;47.866;-4.222;2024-02-21T11:27:37;16.30;71.80
44427;DHT22;30133;47.866;-4.222;2024-02-21T11:30:05;16.20;71.90
44427;DHT22;30133;47.866;-4.222;2024-02-21T11:32:31;16.30;71.90
44427;DHT22;30133;47.866;-4.222;2024-02-21T11:35:04;16.20;71.90
44427;DHT22;30133;47.866;-4.222;2024-02-21T11:37:35;16.30;71.90
44427;DHT22;30133;47.866;-4.222;2024-02-21T11:40:04;16.20;71.90
44427;DHT22;30133;47.866;-4.222;2024-02-21T11:42:32;16.20;71.90
44427;DHT22;30133;47.866;-4.222;2024-02-21T11:44:59;16.20;72.00
44427;DHT22;30133;47.866;-4.222;2024-02-21T11:47:27;16.20;72.00
44427;DHT22;30133;47.866;-4.222;2024-02-21T11:49:54;16.30;72.00
44427;DHT22;30133;47.866;-4.222;2024-02-21T11:52:24;16.20;72.00
44427;DHT22;30133;47.866;-4.222;2024-02-21T11:54:53;16.20;72.00
44427;DHT22;30133;47.866;-4.222;2024-02-21T11:57:20;16.30;72.00
44427;DHT22;30133;47.866;-4.222;2024-02-21T11:59:46;16.20;72.00
44427;DHT22;30133;47.866;-4.222;2024-02-21T12:02:14;16.20;72.10
44427;DHT22;30133;47.866;-4.222;2024-02-21T12:04:40;16.20;72.10
44427;DHT22;30133;47.866;-4.222;2024-02-21T12:07:07;16.20;72.10
44427;DHT22;30133;47.866;-4.222;2024-02-21T12:09:34;16.20;72.10
44427;DHT22;30133;47.866;-4.222;2024-02-21T12:12:02;16.20;72.10
44427;DHT22;30133;47.866;-4.222;2024-02-21T12:14:30;16.30;72.10
44427;DHT22;30133;47.866;-4.222;2024-02-21T12:16:56;16.20;72.10
44427;DHT22;30133;47.866;-4.222;2024-02-21T12:19:22;16.20;72.20
44427;DHT22;30133;47.866;-4.222;2024-02-21T12:21:49;16.20;72.20
44427;DHT22;30133;47.866;-4.222;2024-02-21T12:24:24;16.20;72.20
44427;DHT22;30133;47.866;-4.222;2024-02-21T12:26:52;16.20;72.10
44427;DHT22;30133;47.866;-4.222;2024-02-21T12:29:19;16.20;72.10
44427;DHT22;30133;47.866;-4.222;2024-02-21T12:31:45;16.20;72.20
44427;DHT22;30133;47.866;-4.222;2024-02-21T12:34:10;16.20;72.20
44427;DHT22;30133;47.866;-4.222;2024-02-21T12:36:43;16.30;72.10
44427;DHT22;30133;47.866;-4.222;2024-02-21T12:39:10;16.30;72.10
44427;DHT22;30133;47.866;-4.222;2024-02-21T12:41:36;16.30;72.10
44427;DHT22;30133;47.866;-4.222;2024-02-21T12:44:07;16.20;72.10
44427;DHT22;30133;47.866;-4.222;2024-02-21T12:46:35;16.30;72.10
44427;DHT22;30133;47.866;-4.222;2024-02-21T12:49:02;16.20;72.10
44427;DHT22;30133;47.866;-4.222;2024-02-21T12:51:29;16.30;72.00
44427;DHT22;30133;47.866;-4.222;2024-02-21T12:53:55;16.30;72.10
44427;DHT22;30133;47.866;-4.222;2024-02-21T12:56:21;16.30;72.10
44427;DHT22;30133;47.866;-4.222;2024-02-21T12:58:47;16.30;72.00
44427;DHT22;30133;47.866;-4.222;2024-02-21T13:01:13;16.30;72.10
44427;DHT22;30133;47.866;-4.222;2024-02-21T13:03:39;16.30;72.10
44427;DHT22;30133;47.866;-4.222;2024-02-21T13:06:05;16.20;72.10
44427;DHT22;30133;47.866;-4.222;2024-02-21T13:08:33;16.30;72.10
44427;DHT22;30133;47.866;-4.222;2024-02-21T13:11:01;16.30;72.10
44427;DHT22;30133;47.866;-4.222;2024-02-21T13:13:26;16.20;72.20
44427;DHT22;30133;47.866;-4.222;2024-02-21T13:15:52;16.20;72.20
44427;DHT22;30133;47.866;-4.222;2024-02-21T13:18:18;16.20;72.20
44427;DHT22;30133;47.866;-4.222;2024-02-21T13:20:44;16.20;72.20
44427;DHT22;30133;47.866;-4.222;2024-02-21T13:23:16;16.20;72.20
44427;DHT22;30133;47.866;-4.222;2024-02-21T13:25:41;16.20;72.20
44427;DHT22;30133;47.866;-4.222;2024-02-21T13:28:07;16.20;72.30
44427;DHT22;30133;47.866;-4.222;2024-02-21T13:30:35;16.20;72.30
44427;DHT22;30133;47.866;-4.222;2024-02-21T13:33:01;16.30;72.20
44427;DHT22;30133;47.866;-4.222;2024-02-21T13:35:28;16.20;72.30
44427;DHT22;30133;47.866;-4.222;2024-02-21T13:38:01;16.20;72.30
44427;DHT22;30133;47.866;-4.222;2024-02-21T13:40:26;16.20;72.30
44427;DHT22;30133;47.866;-4.222;2024-02-21T13:42:52;16.20;72.30
44427;DHT22;30133;47.866;-4.222;2024-02-21T13:45:19;16.30;72.40
44427;DHT22;30133;47.866;-4.222;2024-02-21T13:47:45;16.20;72.40
44427;DHT22;30133;47.866;-4.222;2024-02-21T13:50:11;16.20;72.40
44427;DHT22;30133;47.866;-4.222;2024-02-21T13:52:37;16.20;72.40
44427;DHT22;30133;47.866;-4.222;2024-02-21T13:55:04;16.30;72.40
44427;DHT22;30133;47.866;-4.222;2024-02-21T13:57:29;16.30;72.40
44427;DHT22;30133;47.866;-4.222;2024-02-21T13:59:55;16.30;72.40
44427;DHT22;30133;47.866;-4.222;2024-02-21T14:02:21;16.30;72.40
44427;DHT22;30133;47.866;-4.222;2024-02-21T14:04:47;16.30;72.30
44427;DHT22;30133;47.866;-4.222;2024-02-21T14:07:13;16.30;72.30
44427;DHT22;30133;47.866;-4.222;2024-02-21T14:09:39;16.30;72.30
44427;DHT22;30133;47.866;-4.222;2024-02-21T14:12:05;16.30;72.30
44427;DHT22;30133;47.866;-4.222;2024-02-21T14:14:35;16.30;72.30
44427;DHT22;30133;47.866;-4.222;2024-02-21T14:17:02;16.30;72.40
44427;DHT22;30133;47.866;-4.222;2024-02-21T14:19:29;16.30;72.40
44427;DHT22;30133;47.866;-4.222;2024-02-21T14:21:55;16.30;72.40
44427;DHT22;30133;47.866;-4.222;2024-02-21T14:24:22;16.30;72.40
44427;DHT22;30133;47.866;-4.222;2024-02-21T14:26:48;16.30;72.40
44427;DHT22;30133;47.866;-4.222;2024-02-21T14:29:14;16.30;72.40
44427;DHT22;30133;47.866;-4.222;2024-02-21T14:31:40;16.30;72.40
44427;DHT22;30133;47.866;-4.222;2024-02-21T14:34:06;16.30;72.40
44427;DHT22;30133;47.866;-4.222;2024-02-21T14:36:39;16.30;72.50
44427;DHT22;30133;47.866;-4.222;2024-02-21T14:39:13;16.30;72.40
44427;DHT22;30133;47.866;-4.222;2024-02-21T14:41:39;16.30;72.40
44427;DHT22;30133;47.866;-4.222;2024-02-21T14:44:05;16.30;72.40
44427;DHT22;30133;47.866;-4.222;2024-02-21T14:46:31;16.30;72.50
44427;DHT22;30133;47.866;-4.222;2024-02-21T14:48:58;16.30;72.50
44427;DHT22;30133;47.866;-4.222;2024-02-21T14:51:24;16.30;72.50
44427;DHT22;30133;47.866;-4.222;2024-02-21T14:53:50;16.30;72.50
44427;DHT22;30133;47.866;-4.222;2024-02-21T14:56:16;16.30;72.50
44427;DHT22;30133;47.866;-4.222;2024-02-21T14:58:49;16.30;72.50
44427;DHT22;30133;47.866;-4.222;2024-02-21T15:01:15;16.40;72.50
44427;DHT22;30133;47.866;-4.222;2024-02-21T15:03:42;16.30;72.50
44427;DHT22;30133;47.866;-4.222;2024-02-21T15:06:08;16.40;72.50
44427;DHT22;30133;47.866;-4.222;2024-02-21T15:08:34;16.30;72.50
44427;DHT22;30133;47.866;-4.222;2024-02-21T15:11:01;16.30;72.50
44427;DHT22;30133;47.866;-4.222;2024-02-21T15:13:34;16.30;72.50
44427;DHT22;30133;47.866;-4.222;2024-02-21T15:16:00;16.40;72.50
44427;DHT22;30133;47.866;-4.222;2024-02-21T15:18:25;16.40;72.50
44427;DHT22;30133;47.866;-4.222;2024-02-21T15:20:51;16.40;72.50